< < Back
Terminal Aerodrome Forecast


Current Version              Previous Versions:   1  2  3  4  5  6  7  8  9  

Terminal Aerodrome Forecast

574
FTUS42 KTAE 121120
TAFDHN
TAF
KDHN 121120Z 1212/1312 24010KT P6SM SCT005
      TEMPO 1212/1215 BKN012
     FM121600 27013G25KT P6SM SCT025
     FM130000 33008KT P6SM SKC=

Latest METAR

606
SAUS70 KWBC 121200 RRL
MTRDHN
METAR KDHN 121153Z 25011KT 10SM OVC007 13/12 A3018 RMK AO2 SLP216
T01330122 10150 20128 51004 $


USA.gov is the U.S. government's official web portal to all federal, state and local government web resources and services.